Stations météo

réclame
Mon MeteoGroup
Monte Settepani, Italie (16111): Température de l'air & dewpoint: 15.09.2018 00:00:00 - 21.09.2018 00:00:00 (CEST)Monte Settepani, Italie (16111): Vitesse du vent: 15.09.2018 00:00:00 - 21.09.2018 00:00:00 (CEST)Monte Settepani, Italie (16111): Direction du vent: 15.09.2018 00:00:00 - 21.09.2018 00:00:00 (CEST)Monte Settepani, Italie (16111): Quantités de précipitations: 15.09.2018 00:00:00 - 21.09.2018 00:00:00 (CEST)
Date & Time tt [°C] td [°C] ff [km/h] ff [knt] dd rr [mm]
21.09.2018 00:00:00 - - - - - -
20.09.2018 23:00:00 15,6 15,5 16 9 NNW -
20.09.2018 22:00:00 15,4 15,3 21 11 NNW -
20.09.2018 21:00:00 16,1 16,0 16 9 NNW -
20.09.2018 20:00:00 16,4 15,5 13 7 NW 0,0
20.09.2018 19:00:00 16,7 15,3 9 5 NNW -
20.09.2018 18:00:00 18,5 16,8 11 6 NNW -
20.09.2018 17:00:00 19,6 16,8 8 4 NE -
20.09.2018 16:00:00 19,9 18,0 8 4 N -
20.09.2018 15:00:00 19,5 17,4 11 6 NNW -
20.09.2018 14:00:00 18,6 17,2 11 6 NNE 0,0
20.09.2018 13:00:00 18,0 17,1 11 6 NNE -
20.09.2018 12:00:00 16,6 16,4 16 9 NW -
20.09.2018 11:00:00 15,9 15,8 24 13 N -
20.09.2018 10:00:00 15,1 15,0 28 15 NNW -
20.09.2018 09:00:00 14,3 14,2 31 17 N -
20.09.2018 08:00:00 14,1 14,0 35 19 NNW 0,0
20.09.2018 07:00:00 14,0 13,9 35 19 NNW -
20.09.2018 06:00:00 13,9 13,8 29 16 NNW -
20.09.2018 05:00:00 14,0 13,9 28 15 N -
20.09.2018 04:00:00 14,5 14,4 18 10 NW -
20.09.2018 03:00:00 14,9 14,8 26 14 NNW -
20.09.2018 02:00:00 15,0 14,9 24 13 NNW 0,0
20.09.2018 01:00:00 15,0 14,9 22 12 NNW -
20.09.2018 00:00:00 15,3 15,2 28 15 NNW -
19.09.2018 23:00:00 15,4 15,3 28 15 NNW -
19.09.2018 22:00:00 15,6 15,5 18 10 NNW -
19.09.2018 21:00:00 16,0 15,9 18 10 NNW -
19.09.2018 20:00:00 16,4 15,7 16 9 NNW 0,0
19.09.2018 19:00:00 16,5 15,0 8 4 N -
19.09.2018 18:00:00 18,3 16,4 11 6 N -
19.09.2018 17:00:00 19,2 18,0 8 4 N -
19.09.2018 16:00:00 18,4 17,5 5 3 NNE -
19.09.2018 15:00:00 19,2 18,0 8 4 N -
19.09.2018 14:00:00 18,9 18,5 5 3 NNE 0,0
19.09.2018 13:00:00 18,4 18,2 5 3 NE -
19.09.2018 12:00:00 17,0 16,8 9 5 NNW -
19.09.2018 11:00:00 17,0 16,9 13 7 NNE -
19.09.2018 10:00:00 15,5 15,4 16 9 NNW -
19.09.2018 09:00:00 14,3 - 21 11 NNW -
19.09.2018 08:00:00 13,7 - 18 10 NNW 0,0
19.09.2018 07:00:00 13,3 - 16 9 NW -
19.09.2018 06:00:00 13,4 - 21 11 NNW -
19.09.2018 05:00:00 13,3 13,2 26 14 NNW -
19.09.2018 04:00:00 13,7 13,6 24 13 NNW -
19.09.2018 03:00:00 13,9 13,8 22 12 N -
19.09.2018 02:00:00 14,1 14,0 18 10 NNW 0,0
19.09.2018 01:00:00 13,8 13,7 13 7 N -
19.09.2018 00:00:00 13,9 13,8 9 5 NNE -
18.09.2018 23:00:00 14,0 13,9 9 5 N -
18.09.2018 22:00:00 14,3 14,2 5 3 NNE -
18.09.2018 21:00:00 14,1 14,0 8 4 NNE -
18.09.2018 20:00:00 14,6 14,5 9 5 N 0,0
18.09.2018 19:00:00 15,7 15,5 4 2 N -
18.09.2018 18:00:00 16,1 15,9 8 4 N -
18.09.2018 17:00:00 16,7 16,5 5 3 N -
18.09.2018 16:00:00 16,0 15,8 8 4 NNE -
18.09.2018 15:00:00 17,3 17,1 8 4 N -
18.09.2018 14:00:00 16,6 16,5 5 3 NNE 0,0
18.09.2018 13:00:00 16,4 16,2 5 3 NNE -
18.09.2018 12:00:00 16,5 16,4 4 2 NNE -
18.09.2018 11:00:00 16,2 16,1 9 5 NE -
18.09.2018 10:00:00 15,1 - 8 4 N -
18.09.2018 09:00:00 13,8 - 11 6 NE -
18.09.2018 08:00:00 13,2 - 11 6 N -
18.09.2018 07:00:00 12,6 - 8 4 N -
18.09.2018 06:00:00 13,1 - 13 7 N -
18.09.2018 05:00:00 13,3 - 11 6 NNW -
18.09.2018 04:00:00 13,6 - 11 6 N -
18.09.2018 03:00:00 13,7 - 8 4 NNW -
18.09.2018 02:00:00 13,7 - 16 9 N -
18.09.2018 01:00:00 13,6 13,5 21 11 NNW -
18.09.2018 00:00:00 13,5 13,4 15 8 NNW -
17.09.2018 23:00:00 13,1 13,0 8 4 N -
17.09.2018 22:00:00 13,6 13,5 11 6 N -
17.09.2018 21:00:00 13,8 13,7 8 4 N -
17.09.2018 20:00:00 13,9 13,8 5 3 N -
17.09.2018 19:00:00 14,6 14,5 4 2 NNW -
17.09.2018 18:00:00 15,4 15,2 4 2 NNW -
17.09.2018 17:00:00 16,2 16,1 4 2 ENE -
17.09.2018 16:00:00 15,9 15,8 4 2 NE -
17.09.2018 15:00:00 15,1 15,0 9 5 N -
17.09.2018 14:00:00 14,8 14,7 4 2 NE 0,0
17.09.2018 13:00:00 16,0 15,9 4 2 ESE -
17.09.2018 12:00:00 16,0 15,9 2 1 N -
17.09.2018 11:00:00 14,4 14,3 2 1 NE -
17.09.2018 10:00:00 14,3 14,2 4 2 WNW -
17.09.2018 09:00:00 13,3 13,2 8 4 NE -
17.09.2018 08:00:00 13,0 12,9 8 4 NNW -
17.09.2018 07:00:00 13,1 13,0 9 5 N -
17.09.2018 06:00:00 13,0 12,9 8 4 N -
17.09.2018 05:00:00 12,9 12,6 9 5 N -
17.09.2018 04:00:00 13,0 12,9 9 5 N -
17.09.2018 03:00:00 13,3 13,2 8 4 NNW -
17.09.2018 02:00:00 13,6 13,5 8 4 NNW 0,0
17.09.2018 01:00:00 13,6 13,5 8 4 NNW -
17.09.2018 00:00:00 14,3 13,0 4 2 NNE -
16.09.2018 23:00:00 14,3 13,0 5 3 SE -
16.09.2018 22:00:00 14,6 13,4 0 0 N -
16.09.2018 21:00:00 13,6 13,1 9 5 S -
16.09.2018 20:00:00 13,7 13,0 11 6 S 0,0
16.09.2018 19:00:00 14,4 13,4 8 4 S -
16.09.2018 18:00:00 15,1 13,9 8 4 S -
16.09.2018 17:00:00 17,1 15,9 8 4 SSE -
16.09.2018 16:00:00 17,3 15,8 11 6 S -
16.09.2018 15:00:00 17,6 15,5 11 6 SE -
16.09.2018 14:00:00 17,0 14,8 9 5 SE 0,0
16.09.2018 13:00:00 17,6 16,9 13 7 S -
16.09.2018 12:00:00 16,7 16,5 11 6 SSE -
16.09.2018 11:00:00 16,7 16,6 8 4 SSW -
16.09.2018 10:00:00 15,7 15,3 8 4 S -
16.09.2018 09:00:00 14,0 13,9 8 4 SSW -
16.09.2018 08:00:00 13,3 13,2 9 5 S 0,0
16.09.2018 07:00:00 13,3 13,1 11 6 SSW -
16.09.2018 06:00:00 13,4 12,4 11 6 S -
16.09.2018 05:00:00 13,3 12,2 13 7 S -
16.09.2018 04:00:00 13,8 12,7 11 6 SSW -
16.09.2018 03:00:00 13,4 11,9 15 8 S -
16.09.2018 02:00:00 14,1 11,8 11 6 SW 0,0
16.09.2018 01:00:00 14,4 11,9 11 6 S -
16.09.2018 00:00:00 14,7 12,7 9 5 SSW -
15.09.2018 23:00:00 14,6 13,9 13 7 SSW -
15.09.2018 22:00:00 13,9 13,8 11 6 S -
15.09.2018 21:00:00 13,8 - 11 6 SW -
15.09.2018 20:00:00 14,5 14,4 11 6 WSW -
15.09.2018 19:00:00 15,3 15,2 11 6 S -
15.09.2018 18:00:00 15,9 15,8 9 5 S -
15.09.2018 17:00:00 16,4 16,2 4 2 S -
15.09.2018 16:00:00 17,5 17,4 2 1 ESE -
15.09.2018 15:00:00 16,7 - 4 2 SE -
15.09.2018 14:00:00 15,4 15,3 4 2 NNE -
15.09.2018 13:00:00 15,9 15,8 2 1 ENE -
15.09.2018 12:00:00 16,2 16,1 4 2 NNE -
15.09.2018 11:00:00 16,2 16,1 0 0 N -
15.09.2018 10:00:00 16,2 - 5 3 N -
15.09.2018 09:00:00 14,8 14,7 4 2 E -
15.09.2018 08:00:00 14,4 - 0 0 N 0,0
15.09.2018 07:00:00 14,2 - 0 0 N -
15.09.2018 06:00:00 14,1 - 0 0 N -
15.09.2018 05:00:00 14,1 - 5 3 NW -
15.09.2018 04:00:00 14,1 - 5 3 N -
15.09.2018 03:00:00 14,5 - 0 0 N -
15.09.2018 02:00:00 15,0 - 0 0 N 0,0
15.09.2018 01:00:00 15,0 - 4 2 NNW -
15.09.2018 00:00:00 14,2 - 4 2 SSW -

tt = Température de l'air
td = dewpoint
ff = Vitesse du vent
dd = Direction du vent
rr = Quantités de précipitations

stations d'obs. à proximité